Maribel — LAGU6 — position and weather

sailwx.info

Track history (hours):
 
Tides and Currents Weather Stations Pressure Air Temp Water Temp Dewpoint Dewpoint Depression Visibility Wind Speed Wind Dir Waves Ship Positions

Maribel

Last reported at 2016-Jun-29 21:31 UTC. Time now 2016-Jun-29 21:55 UTC.
Position N 51°02' E 001°47'.

Length 228 m; draft 12.8 m.

Type: Ship. MMSI: 257872000.

Date/timePositionNaut miles runAvg speedWind from/ knotsBaromVisibWave heightAir tempDewpointWater temp
2016-Jun-29 21:31N 51°02' E 001°47'0 0.1
2016-Jun-29 20:31N 51°02' E 001°47'0 0.0
2016-Jun-29 19:30N 51°02' E 001°47'0 0.0
2016-Jun-29 18:33N 51°02' E 001°47'0 0.0
2016-Jun-29 17:32N 51°02' E 001°47'0 0.0
2016-Jun-29 16:32N 51°02' E 001°47'0 0.3
2016-Jun-29 15:26N 51°02' E 001°46'0 0.1
2016-Jun-29 14:31N 51°02' E 001°46'0 0.0
2016-Jun-29 13:31N 51°02' E 001°46'0 0.0
2016-Jun-29 12:30N 51°02' E 001°46'0 0.3
2016-Jun-29 11:33N 51°02' E 001°46'0 0.2
2016-Jun-29 10:32N 51°02' E 001°47'0 0.0
2016-Jun-29 09:32N 51°02' E 001°47'0 0.1
2016-Jun-29 08:34N 51°02' E 001°47'8 7.6
2016-Jun-29 07:33N 51°07' E 001°37'1010.4
2016-Jun-29 06:33N 51°15' E 001°48'1111.4
2016-Jun-29 05:33N 51°25' E 001°55'1312.5
2016-Jun-29 04:33N 51°35' E 002°08'46212.2
2016-Jun-27 14:32N 57°51' E 009°55'1212.6
2016-Jun-27 13:33N 57°51' E 010°18'1412.1
2016-Jun-27 12:22N 57°48' E 010°44'911.3
2016-Jun-27 11:33N 57°42' E 010°57'1312.6
2016-Jun-27 10:33N 57°34' E 011°15'1212.0
2016-Jun-27 09:33N 57°24' E 011°29'1312.9
2016-Jun-27 08:33N 57°12' E 011°36'1312.8
2016-Jun-27 07:33N 56°60' E 011°44'1212.3
2016-Jun-27 06:33N 56°48' E 011°52'1211.8
2016-Jun-27 05:33N 56°37' E 011°45'3712.3
2016-Jun-27 02:33N 56°06' E 011°09'1211.6
2016-Jun-27 01:33N 55°56' E 010°58'4310.7
2016-Jun-26 21:33N 55°13' E 011°06'1212.0
2016-Jun-26 20:33N 55°02' E 010°60'1212.1
2016-Jun-26 19:33N 54°51' E 010°50'1211.7
2016-Jun-26 18:33N 54°40' E 010°50'1313.1
2016-Jun-26 17:33N 54°36' E 011°11'1414.0
2016-Jun-26 16:33N 54°30' E 011°33'1313.3
2016-Jun-26 15:33N 54°26' E 011°55'1110.4
2016-Jun-26 14:31N 54°30' E 012°13'5711.3
2016-Jun-26 09:32N 54°59' E 013°37'1212.2
2016-Jun-26 08:33N 55°03' E 013°57'1211.8
2016-Jun-26 07:33N 55°10' E 014°13'1212.1
2016-Jun-26 06:33N 55°19' E 014°26'1212.2
2016-Jun-26 05:33N 55°28' E 014°41'1212.3
2016-Jun-26 04:33N 55°34' E 015°00'1212.5
2016-Jun-26 03:33N 55°39' E 015°21'1312.9
2016-Jun-26 02:33N 55°42' E 015°43'4412.7
2016-Jun-25 23:06N 55°53' E 016°59'812.6
2016-Jun-25 22:27N 55°55' E 017°13'29312.7
2016-Jun-24 23:22N 59°36' E 023°12'1113.3
2016-Jun-24 22:33N 59°40' E 023°32'1413.4
2016-Jun-24 21:33N 59°44' E 023°57'1313.4
2016-Jun-24 20:33N 59°47' E 024°23'5513.6
2016-Jun-24 16:33N 59°58' E 026°09'1413.6
2016-Jun-24 15:33N 60°02' E 026°36'1413.2
2016-Jun-24 14:30N 59°59' E 027°03'1313.3
2016-Jun-24 13:33N 60°06' E 027°25'1312.6
2016-Jun-24 12:33N 60°12' E 027°47'1313.0
2016-Jun-24 11:32N 60°23' E 028°02'11 8.7
2016-Jun-24 10:17N 60°28' E 028°21'7 9.4
2016-Jun-24 09:31N 60°35' E 028°26'3 2.6
2016-Jun-24 08:12N 60°36' E 028°33'0 0.0
2016-Jun-24 04:32N 60°36' E 028°33'0 0.0
2016-Jun-24 03:04N 60°36' E 028°33'0 0.0
2016-Jun-24 02:19N 60°36' E 028°33'0 0.0
2016-Jun-24 01:27N 60°36' E 028°33'0 0.0
2016-Jun-23 15:20N 60°36' E 028°33'0 0.0
2016-Jun-23 14:26N 60°36' E 028°33'0 0.0
2016-Jun-23 12:28N 60°36' E 028°33'0 0.0
2016-Jun-23 04:27N 60°36' E 028°33'0 0.0
2016-Jun-23 03:33N 60°36' E 028°33'0 0.0
2016-Jun-23 02:26N 60°36' E 028°33'0 0.0
2016-Jun-23 01:20N 60°36' E 028°33'0 0.0
2016-Jun-23 00:29N 60°36' E 028°33'0 0.0
2016-Jun-22 23:22N 60°36' E 028°33'0 0.0
2016-Jun-22 22:16N 60°36' E 028°33'0 0.0
2016-Jun-22 21:24N 60°36' E 028°33'0 0.0
2016-Jun-22 19:26N 60°36' E 028°33'0 0.0
2016-Jun-22 18:14N 60°36' E 028°33'0 0.0
2016-Jun-22 17:32N 60°36' E 028°33'0 0.0
2016-Jun-22 12:33N 60°36' E 028°33'30 8.7
2016-Jun-22 09:07N 60°14' E 027°50'814.8
2016-Jun-22 08:34N 60°08' E 027°38'1515.3
2016-Jun-22 07:33N 60°00' E 027°12'1414.3
2016-Jun-22 06:34N 59°60' E 026°43'6115.3
2016-Jun-22 02:33N 59°46' E 024°44'1515.4
2016-Jun-22 01:34N 59°42' E 024°15'1515.5
2016-Jun-22 00:33N 59°37' E 023°46'1515.4
2016-Jun-21 23:34N 59°32' E 023°17'34015.1
2016-Jun-21 01:07N 55°41' E 015°33'915.7
2016-Jun-21 00:33N 55°37' E 015°19'1615.7
2016-Jun-20 23:34N 55°28' E 014°56'1514.9
2016-Jun-20 22:33N 55°20' E 014°34'1515.3
2016-Jun-20 21:34N 55°09' E 014°15'1514.7
2016-Jun-20 20:33N 55°10' E 013°49'1514.5
2016-Jun-20 19:34N 55°12' E 013°24'1414.5
2016-Jun-20 18:33N 55°14' E 012°59'1313.2
2016-Jun-20 17:34N 55°20' E 012°38'1010.3
2016-Jun-20 16:33N 55°30' E 012°42'7 7.4
2016-Jun-20 15:33N 55°37' E 012°42'1111.5
2016-Jun-20 14:34N 55°49' E 012°42'1312.6
2016-Jun-20 13:33N 56°01' E 012°40'1111.3
2016-Jun-20 12:33N 56°09' E 012°25'1414.0
2016-Jun-20 11:33N 56°17' E 012°04'1413.9
2016-Jun-20 10:33N 56°30' E 011°58'1414.0
2016-Jun-20 09:34N 56°44' E 011°53'1414.2
2016-Jun-20 08:33N 56°57' E 011°44'1414.0
2016-Jun-20 07:33N 57°11' E 011°35'1414.1
2016-Jun-20 06:33N 57°24' E 011°26'1413.8
2016-Jun-20 05:33N 57°35' E 011°10'1211.7
2016-Jun-20 04:33N 57°43' E 010°54'2 1.8
2016-Jun-20 03:34N 57°43' E 010°51'8 8.4
2016-Jun-20 02:34N 57°51' E 010°44'3115.3
2016-Jun-20 00:33N 57°51' E 009°46'1515.4
2016-Jun-19 23:33N 57°44' E 009°20'  
Track history (hours):
 
Tides and Currents Weather Stations Pressure Air Temp Water Temp Dewpoint Dewpoint Depression Visibility Wind Speed Wind Dir Waves Ship Positions

Maribel

Last reported at 2016-Jun-29 21:31 UTC. Time now 2016-Jun-29 21:55 UTC.
Position N 51°02' E 001°47'.

Length 228 m; draft 12.8 m.

Type: Ship. MMSI: 257872000.

Date/timePositionNaut miles runAvg speedWind from/ knotsBaromVisibWave heightAir tempDewpointWater temp
2016-Jun-29 21:31N 51°02' E 001°47'0 0.1
2016-Jun-29 20:31N 51°02' E 001°47'0 0.0
2016-Jun-29 19:30N 51°02' E 001°47'0 0.0
2016-Jun-29 18:33N 51°02' E 001°47'0 0.0
2016-Jun-29 17:32N 51°02' E 001°47'0 0.0
2016-Jun-29 16:32N 51°02' E 001°47'0 0.3
2016-Jun-29 15:26N 51°02' E 001°46'0 0.1
2016-Jun-29 14:31N 51°02' E 001°46'0 0.0
2016-Jun-29 13:31N 51°02' E 001°46'0 0.0
2016-Jun-29 12:30N 51°02' E 001°46'0 0.3
2016-Jun-29 11:33N 51°02' E 001°46'0 0.2
2016-Jun-29 10:32N 51°02' E 001°47'0 0.0
2016-Jun-29 09:32N 51°02' E 001°47'0 0.1
2016-Jun-29 08:34N 51°02' E 001°47'8 7.6
2016-Jun-29 07:33N 51°07' E 001°37'1010.4
2016-Jun-29 06:33N 51°15' E 001°48'1111.4
2016-Jun-29 05:33N 51°25' E 001°55'1312.5
2016-Jun-29 04:33N 51°35' E 002°08'46212.2
2016-Jun-27 14:32N 57°51' E 009°55'1212.6
2016-Jun-27 13:33N 57°51' E 010°18'1412.1
2016-Jun-27 12:22N 57°48' E 010°44'911.3
2016-Jun-27 11:33N 57°42' E 010°57'1312.6
2016-Jun-27 10:33N 57°34' E 011°15'1212.0
2016-Jun-27 09:33N 57°24' E 011°29'1312.9
2016-Jun-27 08:33N 57°12' E 011°36'1312.8
2016-Jun-27 07:33N 56°60' E 011°44'1212.3
2016-Jun-27 06:33N 56°48' E 011°52'1211.8
2016-Jun-27 05:33N 56°37' E 011°45'3712.3
2016-Jun-27 02:33N 56°06' E 011°09'1211.6
2016-Jun-27 01:33N 55°56' E 010°58'4310.7
2016-Jun-26 21:33N 55°13' E 011°06'1212.0
2016-Jun-26 20:33N 55°02' E 010°60'1212.1
2016-Jun-26 19:33N 54°51' E 010°50'1211.7
2016-Jun-26 18:33N 54°40' E 010°50'1313.1
2016-Jun-26 17:33N 54°36' E 011°11'1414.0
2016-Jun-26 16:33N 54°30' E 011°33'1313.3
2016-Jun-26 15:33N 54°26' E 011°55'1110.4
2016-Jun-26 14:31N 54°30' E 012°13'5711.3
2016-Jun-26 09:32N 54°59' E 013°37'1212.2
2016-Jun-26 08:33N 55°03' E 013°57'1211.8
2016-Jun-26 07:33N 55°10' E 014°13'1212.1
2016-Jun-26 06:33N 55°19' E 014°26'1212.2
2016-Jun-26 05:33N 55°28' E 014°41'1212.3
2016-Jun-26 04:33N 55°34' E 015°00'1212.5
2016-Jun-26 03:33N 55°39' E 015°21'1312.9
2016-Jun-26 02:33N 55°42' E 015°43'4412.7
2016-Jun-25 23:06N 55°53' E 016°59'812.6
2016-Jun-25 22:27N 55°55' E 017°13'29312.7
2016-Jun-24 23:22N 59°36' E 023°12'1113.3
2016-Jun-24 22:33N 59°40' E 023°32'1413.4
2016-Jun-24 21:33N 59°44' E 023°57'1313.4
2016-Jun-24 20:33N 59°47' E 024°23'5513.6
2016-Jun-24 16:33N 59°58' E 026°09'1413.6
2016-Jun-24 15:33N 60°02' E 026°36'1413.2
2016-Jun-24 14:30N 59°59' E 027°03'1313.3
2016-Jun-24 13:33N 60°06' E 027°25'1312.6
2016-Jun-24 12:33N 60°12' E 027°47'1313.0
2016-Jun-24 11:32N 60°23' E 028°02'11 8.7
2016-Jun-24 10:17N 60°28' E 028°21'7 9.4
2016-Jun-24 09:31N 60°35' E 028°26'3 2.6
2016-Jun-24 08:12N 60°36' E 028°33'0 0.0
2016-Jun-24 04:32N 60°36' E 028°33'0 0.0
2016-Jun-24 03:04N 60°36' E 028°33'0 0.0
2016-Jun-24 02:19N 60°36' E 028°33'0 0.0
2016-Jun-24 01:27N 60°36' E 028°33'0 0.0
2016-Jun-23 15:20N 60°36' E 028°33'0 0.0
2016-Jun-23 14:26N 60°36' E 028°33'0 0.0
2016-Jun-23 12:28N 60°36' E 028°33'0 0.0
2016-Jun-23 04:27N 60°36' E 028°33'0 0.0
2016-Jun-23 03:33N 60°36' E 028°33'0 0.0
2016-Jun-23 02:26N 60°36' E 028°33'0 0.0
2016-Jun-23 01:20N 60°36' E 028°33'0 0.0
2016-Jun-23 00:29N 60°36' E 028°33'0 0.0
2016-Jun-22 23:22N 60°36' E 028°33'0 0.0
2016-Jun-22 22:16N 60°36' E 028°33'0 0.0
2016-Jun-22 21:24N 60°36' E 028°33'0 0.0
2016-Jun-22 19:26N 60°36' E 028°33'0 0.0
2016-Jun-22 18:14N 60°36' E 028°33'0 0.0
2016-Jun-22 17:32N 60°36' E 028°33'0 0.0
2016-Jun-22 12:33N 60°36' E 028°33'30 8.7
2016-Jun-22 09:07N 60°14' E 027°50'814.8
2016-Jun-22 08:34N 60°08' E 027°38'1515.3
2016-Jun-22 07:33N 60°00' E 027°12'1414.3
2016-Jun-22 06:34N 59°60' E 026°43'6115.3
2016-Jun-22 02:33N 59°46' E 024°44'1515.4
2016-Jun-22 01:34N 59°42' E 024°15'1515.5
2016-Jun-22 00:33N 59°37' E 023°46'1515.4
2016-Jun-21 23:34N 59°32' E 023°17'34015.1
2016-Jun-21 01:07N 55°41' E 015°33'915.7
2016-Jun-21 00:33N 55°37' E 015°19'1615.7
2016-Jun-20 23:34N 55°28' E 014°56'1514.9
2016-Jun-20 22:33N 55°20' E 014°34'1515.3
2016-Jun-20 21:34N 55°09' E 014°15'1514.7
2016-Jun-20 20:33N 55°10' E 013°49'1514.5
2016-Jun-20 19:34N 55°12' E 013°24'1414.5
2016-Jun-20 18:33N 55°14' E 012°59'1313.2
2016-Jun-20 17:34N 55°20' E 012°38'1010.3
2016-Jun-20 16:33N 55°30' E 012°42'7 7.4
2016-Jun-20 15:33N 55°37' E 012°42'1111.5
2016-Jun-20 14:34N 55°49' E 012°42'1312.6
2016-Jun-20 13:33N 56°01' E 012°40'1111.3
2016-Jun-20 12:33N 56°09' E 012°25'1414.0
2016-Jun-20 11:33N 56°17' E 012°04'1413.9
2016-Jun-20 10:33N 56°30' E 011°58'1414.0
2016-Jun-20 09:34N 56°44' E 011°53'1414.2
2016-Jun-20 08:33N 56°57' E 011°44'1414.0
2016-Jun-20 07:33N 57°11' E 011°35'1414.1
2016-Jun-20 06:33N 57°24' E 011°26'1413.8
2016-Jun-20 05:33N 57°35' E 011°10'1211.7
2016-Jun-20 04:33N 57°43' E 010°54'2 1.8
2016-Jun-20 03:34N 57°43' E 010°51'8 8.4
2016-Jun-20 02:34N 57°51' E 010°44'3115.3
2016-Jun-20 00:33N 57°51' E 009°46'1515.4
2016-Jun-19 23:33N 57°44' E 009°20'  

Dump ship's entire track history